This is the latest recevied weather packets stored in our database for station/object OK5TVR-5. If no packets are shown the sender has not sent any weather packets the latest 10 day(s).
| Time | Temp. | Humidity | Pressure | Rain* | Wind** | Luminosity | Snow |
|---|---|---|---|---|---|---|---|
| 1788031464 | 17.22° C | 72% | 1009 hPa | 0 mm | - | 0 W/m² | - |
| 1788030564 | 17.22° C | 71% | 1009 hPa | 0 mm | - | 0 W/m² | - |
| 1788029664 | 17.78° C | 69% | 1008.9 hPa | 0 mm | - | 0 W/m² | - |
| 1788028764 | 17.78° C | 69% | 1008.8 hPa | 0 mm | - | 0 W/m² | - |
| 1788027864 | 18.33° C | 68% | 1008.7 hPa | 0 mm | - | 0 W/m² | - |
| 1788026964 | 18.89° C | 67% | 1008.5 hPa | 0 mm | - | 0 W/m² | - |
| 1788026064 | 19.44° C | 63% | 1008.3 hPa | 0 mm | - | 1 W/m² | - |
| 1788025164 | 20.56° C | 59% | 1008 hPa | 0 mm | - | 4 W/m² | - |
| 1788024264 | 21.67° C | 54% | 1007.9 hPa | 0 mm | - | 8 W/m² | - |
| 1788023364 | 22.78° C | 52% | 1007.8 hPa | 0 mm | - | 11 W/m² | - |
| 1788022464 | 22.78° C | 48% | 1007.8 hPa | 0 mm | - | 15 W/m² | - |
| 1788021564 | 22.78° C | 48% | 1007.7 hPa | 0 mm | - | 31 W/m² | - |
| 1788020664 | 22.78° C | 51% | 1007.8 hPa | 0 mm | - | 24 W/m² | - |
| 1788019764 | 24.44° C | 46% | 1007.6 hPa | 0 mm | - | 64 W/m² | - |
| 1788018864 | 23.33° C | 48% | 1008 hPa | 0 mm | - | 34 W/m² | - |
| 1788017964 | 22.78° C | 48% | 1008 hPa | 0 mm | - | 66 W/m² | - |
| 1788017064 | 23.33° C | 46% | 1007.9 hPa | 0 mm | - | 67 W/m² | - |
| 1788016164 | 24.44° C | 43% | 1007.8 hPa | 0 mm | - | 38 W/m² | - |
| 1788015264 | 24.44° C | 41% | 1007.7 hPa | 0 mm | - | 102 W/m² | - |
| 1788014364 | 25° C | 42% | 1007.6 hPa | 0 mm | - | 127 W/m² | - |
| 1788013464 | 25° C | 43% | 1007.7 hPa | 0 mm | - | 121 W/m² | - |
| 1788012564 | 25° C | 43% | 1007.7 hPa | 0 mm | - | 144 W/m² | - |
| 1788011664 | 24.44° C | 42% | 1008 hPa | 0 mm | - | 70 W/m² | - |
| 1788010764 | 24.44° C | 40% | 1007.9 hPa | 0 mm | - | 174 W/m² | - |
| 1788009864 | 25.56° C | 42% | 1007.8 hPa | 0 mm | - | 198 W/m² | - |
* Rain latest hour (hover to see other rain measurements)
** Current wind speed in m/s (hover to see current wind gust speed)